sensor_id;sensor_type;location;lat;lon;timestamp;pressure;altitude;pressure_sealevel;temperature;humidity
35551;BME280;21655;46.056;13.616;2022-07-06T00:01:56;100486.88;;;23.22;87.14
35551;BME280;21655;46.056;13.616;2022-07-06T00:04:22;100482.50;;;23.15;89.05
35551;BME280;21655;46.056;13.616;2022-07-06T00:06:48;100490.41;;;23.13;88.39
35551;BME280;21655;46.056;13.616;2022-07-06T00:09:15;100490.13;;;23.14;88.09
35551;BME280;21655;46.056;13.616;2022-07-06T00:11:40;100489.78;;;23.11;87.03
35551;BME280;21655;46.056;13.616;2022-07-06T00:14:06;100491.59;;;23.17;87.40
35551;BME280;21655;46.056;13.616;2022-07-06T00:16:31;100498.38;;;23.16;87.29
35551;BME280;21655;46.056;13.616;2022-07-06T00:18:57;100494.94;;;23.14;88.13
35551;BME280;21655;46.056;13.616;2022-07-06T00:21:22;100505.03;;;23.10;88.27
35551;BME280;21655;46.056;13.616;2022-07-06T00:23:48;100509.22;;;23.07;88.13
35551;BME280;21655;46.056;13.616;2022-07-06T00:26:14;100523.13;;;23.09;88.86
35551;BME280;21655;46.056;13.616;2022-07-06T00:28:39;100522.25;;;23.08;86.81
35551;BME280;21655;46.056;13.616;2022-07-06T00:31:05;100522.13;;;23.15;87.71
35551;BME280;21655;46.056;13.616;2022-07-06T00:33:31;100517.59;;;23.14;90.35
35551;BME280;21655;46.056;13.616;2022-07-06T00:35:56;100517.59;;;23.14;90.37
35551;BME280;21655;46.056;13.616;2022-07-06T00:38:22;100519.81;;;23.12;89.51
35551;BME280;21655;46.056;13.616;2022-07-06T00:40:47;100519.53;;;23.13;89.40
35551;BME280;21655;46.056;13.616;2022-07-06T00:43:13;100526.91;;;22.98;89.55
35551;BME280;21655;46.056;13.616;2022-07-06T00:48:04;100541.03;;;22.98;89.76
35551;BME280;21655;46.056;13.616;2022-07-06T00:50:30;100543.69;;;22.88;89.17
35551;BME280;21655;46.056;13.616;2022-07-06T00:52:59;100535.16;;;23.00;88.54
35551;BME280;21655;46.056;13.616;2022-07-06T00:55:27;100532.47;;;22.93;89.02
35551;BME280;21655;46.056;13.616;2022-07-06T00:57:54;100539.84;;;22.94;89.13
35551;BME280;21655;46.056;13.616;2022-07-06T01:00:22;100539.41;;;22.86;90.21
35551;BME280;21655;46.056;13.616;2022-07-06T01:02:48;100539.13;;;22.87;89.67
35551;BME280;21655;46.056;13.616;2022-07-06T01:05:15;100551.84;;;22.85;89.37
35551;BME280;21655;46.056;13.616;2022-07-06T01:07:42;100569.94;;;22.84;88.31
35551;BME280;21655;46.056;13.616;2022-07-06T01:10:09;100572.41;;;22.80;89.75
35551;BME280;21655;46.056;13.616;2022-07-06T01:12:35;100574.69;;;22.67;91.31
35551;BME280;21655;46.056;13.616;2022-07-06T01:15:03;100584.09;;;22.72;91.85
35551;BME280;21655;46.056;13.616;2022-07-06T01:17:30;100587.81;;;22.73;90.67
35551;BME280;21655;46.056;13.616;2022-07-06T01:19:56;100579.16;;;22.79;91.21
35551;BME280;21655;46.056;13.616;2022-07-06T01:22:21;100567.50;;;22.76;89.69
35551;BME280;21655;46.056;13.616;2022-07-06T01:24:47;100569.81;;;22.79;88.26
35551;BME280;21655;46.056;13.616;2022-07-06T01:27:12;100568.09;;;22.78;88.06
35551;BME280;21655;46.056;13.616;2022-07-06T01:29:38;100568.63;;;22.75;88.25
35551;BME280;21655;46.056;13.616;2022-07-06T01:32:04;100574.34;;;22.80;89.75
35551;BME280;21655;46.056;13.616;2022-07-06T01:34:29;100565.78;;;22.75;89.82
35551;BME280;21655;46.056;13.616;2022-07-06T01:36:55;100567.13;;;22.72;87.52
35551;BME280;21655;46.056;13.616;2022-07-06T01:39:20;100563.38;;;22.67;86.36
35551;BME280;21655;46.056;13.616;2022-07-06T01:41:46;100557.28;;;22.58;86.50
35551;BME280;21655;46.056;13.616;2022-07-06T01:44:12;100547.84;;;22.53;86.85
35551;BME280;21655;46.056;13.616;2022-07-06T01:46:37;100545.16;;;22.46;87.00
35551;BME280;21655;46.056;13.616;2022-07-06T01:49:04;100545.31;;;22.40;87.08
35551;BME280;21655;46.056;13.616;2022-07-06T01:51:30;100550.44;;;22.43;86.92
35551;BME280;21655;46.056;13.616;2022-07-06T01:53:55;100547.63;;;22.43;86.27
35551;BME280;21655;46.056;13.616;2022-07-06T01:56:21;100545.41;;;22.45;86.15
35551;BME280;21655;46.056;13.616;2022-07-06T01:58:47;100553.41;;;22.36;85.57
35551;BME280;21655;46.056;13.616;2022-07-06T02:01:16;100542.09;;;22.36;85.22
35551;BME280;21655;46.056;13.616;2022-07-06T02:03:42;100538.16;;;22.37;84.96
35551;BME280;21655;46.056;13.616;2022-07-06T02:06:09;100527.00;;;22.31;85.16
35551;BME280;21655;46.056;13.616;2022-07-06T02:08:35;100533.66;;;22.25;85.46
35551;BME280;21655;46.056;13.616;2022-07-06T02:11:08;100522.88;;;22.22;84.79
35551;BME280;21655;46.056;13.616;2022-07-06T02:13:34;100515.16;;;22.17;85.31
35551;BME280;21655;46.056;13.616;2022-07-06T02:16:00;100518.25;;;22.16;84.89
35551;BME280;21655;46.056;13.616;2022-07-06T02:18:26;100513.56;;;22.10;87.89
35551;BME280;21655;46.056;13.616;2022-07-06T02:20:51;100521.84;;;22.00;89.71
35551;BME280;21655;46.056;13.616;2022-07-06T02:23:17;100527.50;;;22.00;87.12
35551;BME280;21655;46.056;13.616;2022-07-06T02:25:43;100533.16;;;21.88;87.55
35551;BME280;21655;46.056;13.616;2022-07-06T02:28:08;100523.09;;;21.81;88.35
35551;BME280;21655;46.056;13.616;2022-07-06T02:30:34;100522.88;;;21.82;88.89
35551;BME280;21655;46.056;13.616;2022-07-06T02:32:59;100514.91;;;21.79;88.09
35551;BME280;21655;46.056;13.616;2022-07-06T02:35:25;100530.97;;;21.79;89.65
35551;BME280;21655;46.056;13.616;2022-07-06T02:37:50;100532.69;;;21.80;90.96
35551;BME280;21655;46.056;13.616;2022-07-06T02:40:15;100535.19;;;21.76;88.43
35551;BME280;21655;46.056;13.616;2022-07-06T02:42:41;100534.91;;;21.78;88.17
35551;BME280;21655;46.056;13.616;2022-07-06T02:45:07;100535.66;;;21.73;87.74
35551;BME280;21655;46.056;13.616;2022-07-06T02:47:33;100534.94;;;21.66;88.74
35551;BME280;21655;46.056;13.616;2022-07-06T02:49:58;100536.38;;;21.57;89.22
35551;BME280;21655;46.056;13.616;2022-07-06T02:52:24;100537.13;;;21.53;89.65
35551;BME280;21655;46.056;13.616;2022-07-06T02:54:49;100535.28;;;21.47;91.11
35551;BME280;21655;46.056;13.616;2022-07-06T02:57:16;100536.50;;;21.39;90.86
35551;BME280;21655;46.056;13.616;2022-07-06T02:59:42;100530.13;;;21.44;90.71
35551;BME280;21655;46.056;13.616;2022-07-06T03:02:07;100540.47;;;21.50;88.97
35551;BME280;21655;46.056;13.616;2022-07-06T03:04:33;100547.56;;;21.52;89.50
35551;BME280;21655;46.056;13.616;2022-07-06T03:06:59;100546.81;;;21.57;89.55
35551;BME280;21655;46.056;13.616;2022-07-06T03:09:25;100554.19;;;21.46;90.96
35551;BME280;21655;46.056;13.616;2022-07-06T03:11:50;100559.34;;;21.38;92.68
35551;BME280;21655;46.056;13.616;2022-07-06T03:14:16;100549.28;;;21.42;93.98
35551;BME280;21655;46.056;13.616;2022-07-06T03:16:42;100549.16;;;21.48;91.94
35551;BME280;21655;46.056;13.616;2022-07-06T03:19:07;100545.34;;;21.43;89.80
35551;BME280;21655;46.056;13.616;2022-07-06T03:21:33;100542.53;;;21.43;92.13
35551;BME280;21655;46.056;13.616;2022-07-06T03:23:58;100543.75;;;21.47;93.01
35551;BME280;21655;46.056;13.616;2022-07-06T03:26:24;100532.97;;;21.44;92.37
35551;BME280;21655;46.056;13.616;2022-07-06T03:28:49;100530.53;;;21.36;92.65
35551;BME280;21655;46.056;13.616;2022-07-06T03:31:15;100545.84;;;21.40;92.19
35551;BME280;21655;46.056;13.616;2022-07-06T03:33:40;100531.84;;;21.45;92.36
35551;BME280;21655;46.056;13.616;2022-07-06T03:36:06;100546.34;;;21.48;91.78
35551;BME280;21655;46.056;13.616;2022-07-06T03:38:33;100539.72;;;21.43;92.75
35551;BME280;21655;46.056;13.616;2022-07-06T03:40:58;100546.22;;;21.32;92.06
35551;BME280;21655;46.056;13.616;2022-07-06T03:43:24;100554.94;;;21.19;92.36
35551;BME280;21655;46.056;13.616;2022-07-06T03:45:49;100559.09;;;21.05;93.92
35551;BME280;21655;46.056;13.616;2022-07-06T03:48:14;100560.53;;;20.96;94.42
35551;BME280;21655;46.056;13.616;2022-07-06T03:50:40;100557.59;;;20.91;95.08
35551;BME280;21655;46.056;13.616;2022-07-06T03:53:05;100555.31;;;20.82;96.05
35551;BME280;21655;46.056;13.616;2022-07-06T03:55:31;100556.84;;;20.84;96.41
35551;BME280;21655;46.056;13.616;2022-07-06T03:57:56;100557.69;;;20.85;97.02
35551;BME280;21655;46.056;13.616;2022-07-06T04:00:22;100555.00;;;20.90;96.87
35551;BME280;21655;46.056;13.616;2022-07-06T04:02:47;100551.34;;;20.89;97.05
35551;BME280;21655;46.056;13.616;2022-07-06T04:05:13;100554.38;;;20.88;97.26
35551;BME280;21655;46.056;13.616;2022-07-06T04:07:38;100550.41;;;20.77;98.46
35551;BME280;21655;46.056;13.616;2022-07-06T04:10:04;100547.81;;;20.76;98.47
35551;BME280;21655;46.056;13.616;2022-07-06T04:12:29;100542.78;;;20.66;98.79
35551;BME280;21655;46.056;13.616;2022-07-06T04:14:58;100554.53;;;20.63;98.98
35551;BME280;21655;46.056;13.616;2022-07-06T04:17:23;100553.06;;;20.61;99.23
35551;BME280;21655;46.056;13.616;2022-07-06T04:20:09;100552.59;;;20.64;99.45
35551;BME280;21655;46.056;13.616;2022-07-06T04:22:39;100557.75;;;20.67;100.00
35551;BME280;21655;46.056;13.616;2022-07-06T04:25:05;100550.50;;;20.71;100.00
35551;BME280;21655;46.056;13.616;2022-07-06T04:27:31;100564.50;;;20.77;99.99
35551;BME280;21655;46.056;13.616;2022-07-06T04:29:56;100555.47;;;20.87;99.31
35551;BME280;21655;46.056;13.616;2022-07-06T04:32:21;100554.72;;;20.80;99.67
35551;BME280;21655;46.056;13.616;2022-07-06T04:34:47;100550.34;;;20.84;100.00
35551;BME280;21655;46.056;13.616;2022-07-06T04:37:12;100558.78;;;20.84;99.48
35551;BME280;21655;46.056;13.616;2022-07-06T04:39:38;100554.31;;;20.76;99.66
35551;BME280;21655;46.056;13.616;2022-07-06T04:42:03;100560.63;;;20.90;99.34
35551;BME280;21655;46.056;13.616;2022-07-06T04:44:29;100554.44;;;21.22;95.97
35551;BME280;21655;46.056;13.616;2022-07-06T04:46:54;100546.72;;;21.52;94.04
35551;BME280;21655;46.056;13.616;2022-07-06T04:49:20;100561.81;;;21.80;91.03
35551;BME280;21655;46.056;13.616;2022-07-06T04:51:45;100559.91;;;21.97;88.95
35551;BME280;21655;46.056;13.616;2022-07-06T04:54:11;100565.78;;;22.07;88.60
35551;BME280;21655;46.056;13.616;2022-07-06T04:56:36;100558.72;;;22.21;87.67
35551;BME280;21655;46.056;13.616;2022-07-06T04:59:02;100566.91;;;22.46;86.08
35551;BME280;21655;46.056;13.616;2022-07-06T05:01:27;100567.66;;;22.69;85.05
35551;BME280;21655;46.056;13.616;2022-07-06T05:03:52;100569.84;;;22.95;82.68
35551;BME280;21655;46.056;13.616;2022-07-06T05:06:18;100570.13;;;23.10;80.89
35551;BME280;21655;46.056;13.616;2022-07-06T05:08:45;100567.47;;;23.20;80.54
35551;BME280;21655;46.056;13.616;2022-07-06T05:11:10;100565.69;;;23.47;78.87
35551;BME280;21655;46.056;13.616;2022-07-06T05:13:36;100569.16;;;23.70;76.76
35551;BME280;21655;46.056;13.616;2022-07-06T05:16:01;100572.94;;;23.76;75.77
35551;BME280;21655;46.056;13.616;2022-07-06T05:18:27;100573.09;;;23.86;74.96
35551;BME280;21655;46.056;13.616;2022-07-06T05:20:52;100564.88;;;23.84;74.24
35551;BME280;21655;46.056;13.616;2022-07-06T05:23:18;100567.13;;;23.82;73.26
35551;BME280;21655;46.056;13.616;2022-07-06T05:25:43;100566.00;;;24.05;72.32
35551;BME280;21655;46.056;13.616;2022-07-06T05:28:08;100567.78;;;24.32;70.81
35551;BME280;21655;46.056;13.616;2022-07-06T05:30:34;100568.97;;;24.36;70.55
35551;BME280;21655;46.056;13.616;2022-07-06T05:32:59;100562.78;;;24.61;69.74
35551;BME280;21655;46.056;13.616;2022-07-06T05:35:25;100566.75;;;24.86;69.21
35551;BME280;21655;46.056;13.616;2022-07-06T05:37:50;100572.25;;;24.98;67.03
35551;BME280;21655;46.056;13.616;2022-07-06T05:40:16;100575.06;;;24.98;67.19
35551;BME280;21655;46.056;13.616;2022-07-06T05:42:41;100579.22;;;25.16;66.70
35551;BME280;21655;46.056;13.616;2022-07-06T05:45:07;100575.34;;;25.54;64.36
35551;BME280;21655;46.056;13.616;2022-07-06T05:47:32;100575.34;;;25.59;64.45
35551;BME280;21655;46.056;13.616;2022-07-06T05:50:16;100576.84;;;25.66;63.72
35551;BME280;21655;46.056;13.616;2022-07-06T05:52:44;100583.38;;;25.62;64.76
35551;BME280;21655;46.056;13.616;2022-07-06T05:55:11;100578.66;;;25.82;62.95
35551;BME280;21655;46.056;13.616;2022-07-06T05:57:38;100570.81;;;25.94;61.49
35551;BME280;21655;46.056;13.616;2022-07-06T06:00:06;100578.53;;;25.99;61.59
35551;BME280;21655;46.056;13.616;2022-07-06T06:02:41;100577.16;;;26.11;60.49
35551;BME280;21655;46.056;13.616;2022-07-06T06:05:09;100577.56;;;26.40;59.31
35551;BME280;21655;46.056;13.616;2022-07-06T06:07:36;100570.50;;;26.42;58.71
35551;BME280;21655;46.056;13.616;2022-07-06T06:10:04;100574.59;;;26.71;58.36
35551;BME280;21655;46.056;13.616;2022-07-06T06:12:29;100574.47;;;26.41;58.31
35551;BME280;21655;46.056;13.616;2022-07-06T06:14:55;100573.47;;;26.77;57.95
35551;BME280;21655;46.056;13.616;2022-07-06T06:17:20;100576.72;;;27.16;56.20
35551;BME280;21655;46.056;13.616;2022-07-06T06:19:46;100578.44;;;27.26;55.25
35551;BME280;21655;46.056;13.616;2022-07-06T06:22:11;100577.88;;;27.44;55.67
35551;BME280;21655;46.056;13.616;2022-07-06T06:24:36;100578.44;;;27.36;56.28
35551;BME280;21655;46.056;13.616;2022-07-06T06:27:02;100575.28;;;27.58;54.39
35551;BME280;21655;46.056;13.616;2022-07-06T06:29:28;100572.16;;;27.54;54.33
35551;BME280;21655;46.056;13.616;2022-07-06T06:31:54;100587.25;;;27.60;55.29
35551;BME280;21655;46.056;13.616;2022-07-06T06:34:19;100573.56;;;28.02;53.56
35551;BME280;21655;46.056;13.616;2022-07-06T06:36:44;100571.22;;;28.14;52.77
35551;BME280;21655;46.056;13.616;2022-07-06T06:39:10;100584.88;;;28.27;52.37
35551;BME280;21655;46.056;13.616;2022-07-06T06:41:35;100581.38;;;28.50;52.19
35551;BME280;21655;46.056;13.616;2022-07-06T06:44:01;100576.97;;;28.77;51.03
35551;BME280;21655;46.056;13.616;2022-07-06T06:46:26;100570.94;;;28.79;50.63
35551;BME280;21655;46.056;13.616;2022-07-06T06:48:51;100568.53;;;29.06;50.25
35551;BME280;21655;46.056;13.616;2022-07-06T06:51:17;100572.06;;;29.31;49.78
35551;BME280;21655;46.056;13.616;2022-07-06T06:53:42;100568.38;;;29.25;49.46
35551;BME280;21655;46.056;13.616;2022-07-06T06:56:08;100571.22;;;28.92;49.62
35551;BME280;21655;46.056;13.616;2022-07-06T06:58:34;100568.22;;;29.12;49.68
35551;BME280;21655;46.056;13.616;2022-07-06T07:00:59;100566.56;;;29.39;48.85
35551;BME280;21655;46.056;13.616;2022-07-06T07:03:25;100574.50;;;29.47;49.28
35551;BME280;21655;46.056;13.616;2022-07-06T07:05:50;100559.19;;;29.95;47.98
35551;BME280;21655;46.056;13.616;2022-07-06T07:08:16;100555.72;;;30.27;47.30
35551;BME280;21655;46.056;13.616;2022-07-06T07:10:41;100559.19;;;30.89;46.78
35551;BME280;21655;46.056;13.616;2022-07-06T07:13:07;100558.22;;;31.17;45.41
35551;BME280;21655;46.056;13.616;2022-07-06T07:15:32;100555.22;;;31.04;45.14
35551;BME280;21655;46.056;13.616;2022-07-06T07:17:58;100557.34;;;31.17;44.95
35551;BME280;21655;46.056;13.616;2022-07-06T07:20:23;100545.59;;;31.68;44.42
35551;BME280;21655;46.056;13.616;2022-07-06T07:22:49;100550.41;;;31.86;43.23
35551;BME280;21655;46.056;13.616;2022-07-06T07:25:14;100545.47;;;32.05;42.02
35551;BME280;21655;46.056;13.616;2022-07-06T07:27:40;100543.16;;;32.34;41.23
35551;BME280;21655;46.056;13.616;2022-07-06T07:30:06;100543.13;;;32.07;43.83
35551;BME280;21655;46.056;13.616;2022-07-06T07:32:32;100536.59;;;32.34;41.63
35551;BME280;21655;46.056;13.616;2022-07-06T07:34:57;100547.53;;;32.32;42.66
35551;BME280;21655;46.056;13.616;2022-07-06T07:37:23;100537.81;;;32.68;41.29
35551;BME280;21655;46.056;13.616;2022-07-06T07:39:48;100536.03;;;32.45;42.28
35551;BME280;21655;46.056;13.616;2022-07-06T07:42:13;100534.53;;;32.61;41.83
35551;BME280;21655;46.056;13.616;2022-07-06T07:44:39;100533.84;;;33.05;41.22
35551;BME280;21655;46.056;13.616;2022-07-06T07:47:06;100537.63;;;33.27;40.81
35551;BME280;21655;46.056;13.616;2022-07-06T07:49:31;100526.31;;;33.52;39.38
35551;BME280;21655;46.056;13.616;2022-07-06T07:51:57;100524.97;;;33.15;38.68
35551;BME280;21655;46.056;13.616;2022-07-06T07:54:23;100522.56;;;32.95;38.87
35551;BME280;21655;46.056;13.616;2022-07-06T07:56:48;100518.47;;;33.88;38.13
35551;BME280;21655;46.056;13.616;2022-07-06T07:59:14;100514.59;;;34.23;36.96
35551;BME280;21655;46.056;13.616;2022-07-06T08:01:40;100515.91;;;34.56;33.11
35551;BME280;21655;46.056;13.616;2022-07-06T08:04:05;100507.84;;;34.92;32.03
35551;BME280;21655;46.056;13.616;2022-07-06T08:06:31;100507.44;;;34.60;29.86
35551;BME280;21655;46.056;13.616;2022-07-06T08:08:57;100508.41;;;34.47;30.62
35551;BME280;21655;46.056;13.616;2022-07-06T08:11:23;100514.66;;;34.88;30.01
35551;BME280;21655;46.056;13.616;2022-07-06T08:13:48;100514.88;;;35.42;28.22
35551;BME280;21655;46.056;13.616;2022-07-06T08:16:14;100512.09;;;35.88;28.78
35551;BME280;21655;46.056;13.616;2022-07-06T08:18:40;100520.09;;;34.98;27.89
35551;BME280;21655;46.056;13.616;2022-07-06T08:21:05;100514.34;;;35.57;26.71
35551;BME280;21655;46.056;13.616;2022-07-06T08:23:31;100502.94;;;35.86;26.29
35551;BME280;21655;46.056;13.616;2022-07-06T08:26:00;100512.53;;;36.15;26.70
35551;BME280;21655;46.056;13.616;2022-07-06T08:28:25;100511.22;;;36.04;26.87
35551;BME280;21655;46.056;13.616;2022-07-06T08:30:51;100515.53;;;35.31;27.62
35551;BME280;21655;46.056;13.616;2022-07-06T08:33:16;100517.91;;;35.79;27.62
35551;BME280;21655;46.056;13.616;2022-07-06T08:35:42;100516.97;;;36.21;26.45
35551;BME280;21655;46.056;13.616;2022-07-06T08:38:07;100517.53;;;36.44;24.78
35551;BME280;21655;46.056;13.616;2022-07-06T08:40:34;100516.59;;;36.89;24.42
35551;BME280;21655;46.056;13.616;2022-07-06T08:43:01;100512.13;;;36.71;22.89
35551;BME280;21655;46.056;13.616;2022-07-06T08:45:27;100524.25;;;37.14;24.90
35551;BME280;21655;46.056;13.616;2022-07-06T08:47:54;100520.78;;;37.82;23.85
35551;BME280;21655;46.056;13.616;2022-07-06T08:50:20;100519.00;;;37.16;23.61
35551;BME280;21655;46.056;13.616;2022-07-06T08:52:48;100512.47;;;36.70;23.43
35551;BME280;21655;46.056;13.616;2022-07-06T08:55:14;100519.41;;;37.47;23.25
35551;BME280;21655;46.056;13.616;2022-07-06T08:57:41;100522.47;;;37.51;23.62
35551;BME280;21655;46.056;13.616;2022-07-06T09:00:08;100508.66;;;37.27;24.02
35551;BME280;21655;46.056;13.616;2022-07-06T09:02:34;100515.97;;;36.84;23.95
35551;BME280;21655;46.056;13.616;2022-07-06T09:05:02;100521.03;;;36.87;24.35
35551;BME280;21655;46.056;13.616;2022-07-06T09:07:29;100515.59;;;37.55;23.52
35551;BME280;21655;46.056;13.616;2022-07-06T09:09:55;100516.97;;;37.70;22.24
35551;BME280;21655;46.056;13.616;2022-07-06T09:12:26;100518.88;;;37.86;23.69
35551;BME280;21655;46.056;13.616;2022-07-06T09:14:54;100520.19;;;37.88;22.87
35551;BME280;21655;46.056;13.616;2022-07-06T09:17:20;100504.31;;;37.21;23.44
35551;BME280;21655;46.056;13.616;2022-07-06T09:19:46;100505.38;;;37.37;22.94
35551;BME280;21655;46.056;13.616;2022-07-06T09:22:24;100510.13;;;37.74;23.54
35551;BME280;21655;46.056;13.616;2022-07-06T09:24:50;100501.63;;;38.46;22.92
35551;BME280;21655;46.056;13.616;2022-07-06T09:27:16;100495.19;;;38.16;21.40
35551;BME280;21655;46.056;13.616;2022-07-06T09:29:45;100508.16;;;38.43;20.86
35551;BME280;21655;46.056;13.616;2022-07-06T09:32:10;100509.72;;;39.00;21.02
35551;BME280;21655;46.056;13.616;2022-07-06T09:34:43;100507.69;;;38.77;20.88
35551;BME280;21655;46.056;13.616;2022-07-06T09:37:09;100506.72;;;39.48;20.53
35551;BME280;21655;46.056;13.616;2022-07-06T09:39:35;100502.94;;;39.20;21.03
35551;BME280;21655;46.056;13.616;2022-07-06T09:42:02;100497.66;;;38.86;20.75
35551;BME280;21655;46.056;13.616;2022-07-06T09:44:39;100507.94;;;38.48;19.77
35551;BME280;21655;46.056;13.616;2022-07-06T09:47:07;100498.56;;;39.14;20.89
35551;BME280;21655;46.056;13.616;2022-07-06T09:49:34;100504.00;;;39.67;19.45
35551;BME280;21655;46.056;13.616;2022-07-06T09:52:04;100496.94;;;38.89;20.95
35551;BME280;21655;46.056;13.616;2022-07-06T09:54:32;100499.81;;;39.53;19.58
35551;BME280;21655;46.056;13.616;2022-07-06T09:56:58;100498.59;;;40.08;18.70
35551;BME280;21655;46.056;13.616;2022-07-06T09:59:28;100500.44;;;39.46;18.35
35551;BME280;21655;46.056;13.616;2022-07-06T10:01:59;100495.81;;;39.57;19.23
35551;BME280;21655;46.056;13.616;2022-07-06T10:04:27;100492.78;;;39.02;18.89
35551;BME280;21655;46.056;13.616;2022-07-06T10:06:54;100490.03;;;38.70;19.31
35551;BME280;21655;46.056;13.616;2022-07-06T10:09:21;100485.75;;;37.22;20.47
35551;BME280;21655;46.056;13.616;2022-07-06T10:11:58;100477.22;;;36.76;21.54
35551;BME280;21655;46.056;13.616;2022-07-06T10:14:27;100479.16;;;37.13;20.94
35551;BME280;21655;46.056;13.616;2022-07-06T10:16:55;100475.91;;;36.94;21.01
35551;BME280;21655;46.056;13.616;2022-07-06T10:19:22;100467.91;;;36.42;22.06
35551;BME280;21655;46.056;13.616;2022-07-06T10:21:49;100473.25;;;35.77;21.90
35551;BME280;21655;46.056;13.616;2022-07-06T10:24:17;100472.59;;;35.55;23.52
35551;BME280;21655;46.056;13.616;2022-07-06T10:26:45;100464.16;;;35.95;23.07
35551;BME280;21655;46.056;13.616;2022-07-06T10:29:10;100466.84;;;36.46;21.45
35551;BME280;21655;46.056;13.616;2022-07-06T10:31:39;100452.69;;;36.24;22.06
35551;BME280;21655;46.056;13.616;2022-07-06T10:34:07;100463.78;;;35.09;23.70
35551;BME280;21655;46.056;13.616;2022-07-06T10:36:38;100457.97;;;35.51;23.64
35551;BME280;21655;46.056;13.616;2022-07-06T10:39:05;100457.31;;;36.08;22.17
35551;BME280;21655;46.056;13.616;2022-07-06T10:41:50;100457.06;;;36.30;22.38
35551;BME280;21655;46.056;13.616;2022-07-06T10:44:20;100457.22;;;36.34;21.46
35551;BME280;21655;46.056;13.616;2022-07-06T10:46:54;100447.09;;;36.48;22.44
35551;BME280;21655;46.056;13.616;2022-07-06T10:49:21;100437.19;;;36.29;22.64
35551;BME280;21655;46.056;13.616;2022-07-06T10:51:47;100448.59;;;36.25;22.83
35551;BME280;21655;46.056;13.616;2022-07-06T10:54:15;100441.19;;;36.16;23.71
35551;BME280;21655;46.056;13.616;2022-07-06T10:56:43;100442.41;;;35.18;23.69
35551;BME280;21655;46.056;13.616;2022-07-06T10:59:11;100436.66;;;35.18;24.38
35551;BME280;21655;46.056;13.616;2022-07-06T11:01:37;100427.06;;;35.60;24.59
35551;BME280;21655;46.056;13.616;2022-07-06T11:06:31;100433.22;;;36.13;22.31
35551;BME280;21655;46.056;13.616;2022-07-06T11:08:58;100431.72;;;35.90;22.59
35551;BME280;21655;46.056;13.616;2022-07-06T11:14:00;100424.06;;;35.14;25.38
35551;BME280;21655;46.056;13.616;2022-07-06T11:16:32;100430.66;;;35.40;25.71
35551;BME280;21655;46.056;13.616;2022-07-06T11:21:40;100435.09;;;33.75;25.81
35551;BME280;21655;46.056;13.616;2022-07-06T11:24:09;100429.72;;;33.30;26.94
35551;BME280;21655;46.056;13.616;2022-07-06T11:26:35;100428.44;;;33.44;26.93
35551;BME280;21655;46.056;13.616;2022-07-06T11:29:04;100421.56;;;33.23;26.85
35551;BME280;21655;46.056;13.616;2022-07-06T11:31:34;100425.50;;;32.92;27.75
35551;BME280;21655;46.056;13.616;2022-07-06T11:34:01;100425.47;;;33.57;26.23
35551;BME280;21655;46.056;13.616;2022-07-06T11:36:27;100431.25;;;34.27;26.13
35551;BME280;21655;46.056;13.616;2022-07-06T11:38:53;100429.34;;;34.70;25.17
35551;BME280;21655;46.056;13.616;2022-07-06T11:41:18;100422.00;;;34.64;25.06
35551;BME280;21655;46.056;13.616;2022-07-06T11:43:45;100429.78;;;34.46;25.60
35551;BME280;21655;46.056;13.616;2022-07-06T11:46:28;100417.13;;;34.17;26.25
35551;BME280;21655;46.056;13.616;2022-07-06T11:48:56;100413.81;;;34.32;26.59
35551;BME280;21655;46.056;13.616;2022-07-06T11:51:27;100410.13;;;34.48;26.52
35551;BME280;21655;46.056;13.616;2022-07-06T11:53:55;100420.84;;;34.99;24.74
35551;BME280;21655;46.056;13.616;2022-07-06T11:56:22;100416.78;;;35.00;24.81
35551;BME280;21655;46.056;13.616;2022-07-06T11:58:51;100402.72;;;34.17;25.76
35551;BME280;21655;46.056;13.616;2022-07-06T12:01:17;100404.34;;;33.62;26.22
35551;BME280;21655;46.056;13.616;2022-07-06T12:03:44;100397.28;;;33.38;27.68
35551;BME280;21655;46.056;13.616;2022-07-06T12:06:23;100391.66;;;32.89;27.44
35551;BME280;21655;46.056;13.616;2022-07-06T12:08:51;100387.88;;;32.80;27.82
35551;BME280;21655;46.056;13.616;2022-07-06T12:11:29;100392.31;;;33.08;29.29
35551;BME280;21655;46.056;13.616;2022-07-06T12:13:58;100389.84;;;33.15;28.00
35551;BME280;21655;46.056;13.616;2022-07-06T12:16:33;100387.16;;;33.40;28.97
35551;BME280;21655;46.056;13.616;2022-07-06T12:19:00;100395.09;;;34.12;27.20
35551;BME280;21655;46.056;13.616;2022-07-06T12:21:26;100393.16;;;34.64;26.12
35551;BME280;21655;46.056;13.616;2022-07-06T12:23:53;100386.09;;;34.87;25.37
35551;BME280;21655;46.056;13.616;2022-07-06T12:26:23;100389.66;;;35.18;26.16
35551;BME280;21655;46.056;13.616;2022-07-06T12:29:05;100382.16;;;35.00;25.01
35551;BME280;21655;46.056;13.616;2022-07-06T12:31:38;100396.09;;;34.72;25.13
35551;BME280;21655;46.056;13.616;2022-07-06T12:34:11;100384.69;;;34.42;25.67
35551;BME280;21655;46.056;13.616;2022-07-06T12:39:11;100379.97;;;34.88;25.97
35551;BME280;21655;46.056;13.616;2022-07-06T12:42:04;100373.50;;;35.08;25.22
35551;BME280;21655;46.056;13.616;2022-07-06T12:44:30;100372.88;;;34.77;24.81
35551;BME280;21655;46.056;13.616;2022-07-06T12:47:06;100378.91;;;34.42;26.47
35551;BME280;21655;46.056;13.616;2022-07-06T12:49:33;100368.41;;;34.37;25.52
35551;BME280;21655;46.056;13.616;2022-07-06T12:52:08;100375.53;;;34.31;25.48